Time;durP1;ratioP1;P1;durP2;ratioP2;P2;SDS_P1;SDS_P2;PMS_P1;PMS_P2;Temp;Humidity;BMP_temperature;BMP_pressure;BME280_temperature;BME280_humidity;BME280_pressure;Samples;Min_cycle;Max_cycle;Signal;HPM_P1;HPM_P2
2021/06/15 00:01:25;;;;;;;;;;;;;;;25.49;36.34;101359.13;5199830;22;100862;-88
2021/06/15 00:03:53;;;;;;;;;;;;;;;25.61;36.45;101350.81;5071810;27;97682;-89
2021/06/15 00:06:29;;;;;;;;;;;;;;;25.42;36.63;101359.69;5053999;27;97995;-88
2021/06/15 00:08:57;;;;;;;;;;;;;;;25.56;36.37;101353.06;5077000;27;99030;-88
2021/06/15 00:11:25;;;;;;;;;;;;;;;25.21;37.17;101352.59;5073447;27;96888;-88
2021/06/15 00:14:00;;;;;;;;;;;;;;;25.28;37.03;101354.63;5068185;27;96887;-88
2021/06/15 00:19:07;;;;;;;;;;;;;;;25.43;37.08;101363.25;5056520;27;99479;-88
2021/06/15 00:21:38;;;;;;;;;;;;;;;25.06;38.00;101364.75;5060274;27;97339;-89
2021/06/15 00:26:55;;;;;;;;;;;;;;;25.15;37.57;101353.13;5088295;27;99022;-89
2021/06/15 00:29:23;;;;;;;;;;;;;;;25.13;37.66;101350.56;5086681;27;99684;-89
2021/06/15 00:34:31;;;;;;;;;;;;;;;25.29;37.14;101344.66;5070742;27;96363;-87
2021/06/15 00:37:00;;;;;;;;;;;;;;;25.16;37.60;101350.28;5083547;27;100413;-87
2021/06/15 00:39:28;;;;;;;;;;;;;;;24.94;38.21;101350.47;5075880;27;100270;-89
2021/06/15 00:41:54;;;;;;;;;;;;;;;25.07;38.27;101343.00;5075473;27;96682;-87
2021/06/15 00:44:21;;;;;;;;;;;;;;;25.00;38.07;101348.09;5062762;27;96218;-88
2021/06/15 00:49:43;;;;;;;;;;;;;;;25.02;37.92;101337.13;5117176;27;96209;-88
2021/06/15 00:52:10;;;;;;;;;;;;;;;25.04;38.14;101340.56;5110782;27;96561;-89
2021/06/15 00:54:37;;;;;;;;;;;;;;;24.84;38.75;101336.84;5101208;27;100319;-89
2021/06/15 00:57:07;;;;;;;;;;;;;;;24.74;39.13;101338.63;5103934;27;100021;-88
2021/06/15 00:59:34;;;;;;;;;;;;;;;24.76;38.99;101331.22;5097343;27;96828;-88
2021/06/15 01:04:46;;;;;;;;;;;;;;;24.79;39.29;101338.22;5097578;27;99960;-87
2021/06/15 01:07:19;;;;;;;;;;;;;;;24.30;40.22;101338.81;5102836;27;98050;-86
2021/06/15 01:09:49;;;;;;;;;;;;;;;24.64;39.59;101343.09;5096132;27;96783;-89
2021/06/15 01:12:25;;;;;;;;;;;;;;;24.64;39.55;101337.69;5093072;27;96763;-88
2021/06/15 01:15:01;;;;;;;;;;;;;;;24.75;38.99;101334.91;5091103;27;98980;-89
2021/06/15 01:17:29;;;;;;;;;;;;;;;24.80;39.13;101337.25;5084069;27;97780;-89
2021/06/15 01:20:09;;;;;;;;;;;;;;;24.54;39.49;101342.16;5098247;27;96799;-88
2021/06/15 01:22:50;;;;;;;;;;;;;;;24.66;39.56;101340.25;5087071;27;96673;-89
2021/06/15 01:25:25;;;;;;;;;;;;;;;24.62;39.53;101334.25;5088720;27;101708;-88
2021/06/15 01:27:58;;;;;;;;;;;;;;;24.45;40.17;101340.22;5082246;27;100208;-87
2021/06/15 01:30:31;;;;;;;;;;;;;;;24.41;40.04;101330.69;5086798;27;96676;-87
2021/06/15 01:33:03;;;;;;;;;;;;;;;24.25;40.99;101338.34;5095930;27;96941;-89
2021/06/15 01:35:32;;;;;;;;;;;;;;;23.97;42.00;101332.50;5089498;27;98175;-89
2021/06/15 01:38:01;;;;;;;;;;;;;;;23.91;41.76;101335.69;5082966;27;97952;-88
2021/06/15 01:40:40;;;;;;;;;;;;;;;24.38;40.81;101330.91;5095848;27;96762;-89
2021/06/15 01:43:25;;;;;;;;;;;;;;;24.04;41.30;101339.09;5103288;27;96860;-88
2021/06/15 01:45:58;;;;;;;;;;;;;;;24.17;40.95;101336.25;5095657;27;98157;-89
2021/06/15 01:48:30;;;;;;;;;;;;;;;24.12;40.89;101336.63;5097528;27;97690;-88
2021/06/15 01:50:58;;;;;;;;;;;;;;;24.03;41.18;101337.38;5088220;27;96961;-88
2021/06/15 01:53:26;;;;;;;;;;;;;;;24.09;40.89;101336.88;5085492;27;96800;-87
2021/06/15 01:55:57;;;;;;;;;;;;;;;24.38;40.21;101341.72;5088143;27;97803;-88
2021/06/15 01:58:28;;;;;;;;;;;;;;;24.40;40.30;101340.63;5108661;27;99074;-88
2021/06/15 02:03:40;;;;;;;;;;;;;;;24.09;40.88;101347.66;5068362;27;96843;-89
2021/06/15 02:06:07;;;;;;;;;;;;;;;24.20;40.84;101336.88;5062800;27;97984;-87
2021/06/15 02:08:37;;;;;;;;;;;;;;;24.14;41.49;101345.47;5070057;27;97565;-88
2021/06/15 02:11:04;;;;;;;;;;;;;;;23.92;41.71;101347.34;5071460;27;96773;-87
2021/06/15 02:13:39;;;;;;;;;;;;;;;23.75;41.96;101346.03;5079424;27;96633;-88
2021/06/15 02:16:10;;;;;;;;;;;;;;;23.96;41.77;101352.34;5080058;27;98353;-87
2021/06/15 02:18:37;;;;;;;;;;;;;;;23.70;43.18;101351.78;5077280;27;98824;-86
2021/06/15 02:21:07;;;;;;;;;;;;;;;23.75;42.98;101346.91;5080170;27;96537;-87
2021/06/15 02:26:18;;;;;;;;;;;;;;;23.93;43.04;101347.22;5080009;27;99625;-88
2021/06/15 02:28:50;;;;;;;;;;;;;;;23.70;43.89;101345.53;5085079;27;97629;-88
2021/06/15 02:31:18;;;;;;;;;;;;;;;23.73;44.00;101342.59;5080428;27;96498;-88
2021/06/15 02:33:47;;;;;;;;;;;;;;;23.70;44.16;101341.00;5079838;27;96347;-87
2021/06/15 02:36:17;;;;;;;;;;;;;;;23.37;44.98;101341.84;5086639;27;96719;-88
2021/06/15 02:38:49;;;;;;;;;;;;;;;23.00;45.84;101345.72;5089364;27;99483;-86
2021/06/15 02:41:16;;;;;;;;;;;;;;;23.15;45.70;101344.53;5090842;27;96094;-86
2021/06/15 02:43:47;;;;;;;;;;;;;;;23.30;45.52;101348.69;5080196;27;96696;-87
2021/06/15 02:46:24;;;;;;;;;;;;;;;23.30;45.48;101346.00;5080174;27;98618;-87
2021/06/15 02:48:53;;;;;;;;;;;;;;;23.39;45.32;101342.56;5091066;27;97871;-87
2021/06/15 02:51:20;;;;;;;;;;;;;;;23.27;45.21;101345.41;5091730;27;96542;-86
2021/06/15 02:53:49;;;;;;;;;;;;;;;23.38;45.43;101348.94;5096071;27;96630;-88
2021/06/15 02:56:18;;;;;;;;;;;;;;;23.36;44.70;101355.47;5086530;27;100556;-88
2021/06/15 02:58:49;;;;;;;;;;;;;;;23.51;44.10;101372.28;5087793;27;96807;-87
2021/06/15 03:01:18;;;;;;;;;;;;;;;23.56;43.72;101359.31;5075190;27;97176;-89
2021/06/15 03:03:45;;;;;;;;;;;;;;;23.37;43.78;101362.53;5078178;27;96576;-88
2021/06/15 03:06:20;;;;;;;;;;;;;;;23.39;44.57;101358.75;5077745;27;99104;-87
2021/06/15 03:08:47;;;;;;;;;;;;;;;23.75;43.79;101351.44;5075435;27;99214;-87
2021/06/15 03:14:04;;;;;;;;;;;;;;;23.35;43.80;101364.53;5076778;27;96957;-88
2021/06/15 03:16:34;;;;;;;;;;;;;;;23.34;44.14;101365.50;5078428;27;96663;-86
2021/06/15 03:19:04;;;;;;;;;;;;;;;23.62;43.97;101364.19;5072197;27;97285;-87
2021/06/15 03:21:33;;;;;;;;;;;;;;;23.51;43.27;101372.28;5091526;27;96701;-86
2021/06/15 03:24:02;;;;;;;;;;;;;;;23.34;43.59;101371.75;5080199;27;96170;-88
2021/06/15 03:26:31;;;;;;;;;;;;;;;23.52;43.26;101377.56;5087488;27;96599;-85
2021/06/15 03:29:00;;;;;;;;;;;;;;;23.54;43.50;101377.44;5088624;27;100247;-87
2021/06/15 03:34:09;;;;;;;;;;;;;;;23.41;44.39;101366.72;5587239;22;99786;-88
2021/06/15 03:36:38;;;;;;;;;;;;;;;23.20;45.04;101374.69;5008758;27;97238;-86
2021/06/15 03:39:06;;;;;;;;;;;;;;;23.29;44.90;101379.34;5019900;27;99616;-86
2021/06/15 03:41:33;;;;;;;;;;;;;;;23.50;43.89;101375.97;5019389;27;95937;-85
2021/06/15 03:44:03;;;;;;;;;;;;;;;23.60;44.03;101385.03;5019987;27;96040;-84
2021/06/15 03:46:31;;;;;;;;;;;;;;;23.40;44.70;101382.06;5018454;27;97615;-87
2021/06/15 03:48:59;;;;;;;;;;;;;;;23.55;44.63;101380.03;5019174;27;99656;-87
2021/06/15 03:51:31;;;;;;;;;;;;;;;23.40;45.03;101387.44;5018021;27;96749;-87
2021/06/15 03:54:08;;;;;;;;;;;;;;;23.47;44.60;101382.47;5019929;27;95935;-85
2021/06/15 03:56:35;;;;;;;;;;;;;;;23.83;44.14;101384.03;5008426;27;99719;-86
2021/06/15 03:59:04;;;;;;;;;;;;;;;23.69;44.82;101379.78;5017370;28;97982;-87
2021/06/15 04:01:36;;;;;;;;;;;;;;;23.55;45.39;101384.56;5015802;27;96826;-88
2021/06/15 04:04:05;;;;;;;;;;;;;;;23.58;46.01;101387.84;5019724;27;96633;-87
2021/06/15 04:09:17;;;;;;;;;;;;;;;23.58;46.83;101379.75;5007199;28;98409;-87
2021/06/15 04:11:43;;;;;;;;;;;;;;;23.86;46.24;101378.41;5013626;28;97176;-87
2021/06/15 04:19:40;;;;;;;;;;;;;;;23.81;45.51;101375.22;5005253;28;96743;-89
2021/06/15 04:24:54;;;;;;;;;;;;;;;23.97;44.13;101377.50;5002199;28;96631;-89
2021/06/15 04:27:25;;;;;;;;;;;;;;;24.06;44.03;101385.72;5016331;28;98984;-88
2021/06/15 04:29:54;;;;;;;;;;;;;;;23.96;44.54;101387.44;5017276;28;98059;-88
2021/06/15 04:32:22;;;;;;;;;;;;;;;23.95;44.60;101387.59;5016707;28;96948;-88
2021/06/15 04:34:53;;;;;;;;;;;;;;;24.12;44.27;101396.03;5014478;27;96518;-87
2021/06/15 04:37:26;;;;;;;;;;;;;;;24.63;43.53;101396.25;5016779;27;96609;-88
2021/06/15 04:39:57;;;;;;;;;;;;;;;24.41;44.09;101393.66;5019556;27;98323;-86
2021/06/15 04:42:28;;;;;;;;;;;;;;;24.47;44.06;101397.69;4999937;28;96670;-87
2021/06/15 04:44:55;;;;;;;;;;;;;;;24.34;43.79;101397.00;5012935;27;96075;-87
2021/06/15 04:47:24;;;;;;;;;;;;;;;24.54;43.38;101398.91;5015793;27;99952;-88
2021/06/15 04:49:57;;;;;;;;;;;;;;;24.83;42.37;101405.38;5009854;28;99221;-88
2021/06/15 04:52:28;;;;;;;;;;;;;;;24.86;42.63;101407.00;5007306;28;97240;-87
2021/06/15 04:55:00;;;;;;;;;;;;;;;25.07;42.70;101404.34;5008617;28;96642;-90
2021/06/15 04:57:30;;;;;;;;;;;;;;;25.09;42.54;101397.78;5005247;28;99996;-88
2021/06/15 04:59:59;;;;;;;;;;;;;;;25.47;42.30;101396.31;4996476;28;99599;-89
2021/06/15 05:02:30;;;;;;;;;;;;;;;25.15;42.21;101401.81;5001529;28;96817;-91
2021/06/15 05:04:58;;;;;;;;;;;;;;;25.36;40.25;101394.53;5008648;28;97590;-89
2021/06/15 05:07:26;;;;;;;;;;;;;;;25.57;39.68;101395.41;5005293;28;100169;-92
2021/06/15 05:10:08;;;;;;;;;;;;;;;26.01;38.72;101402.25;5001451;28;99750;-91
2021/06/15 05:15:28;;;;;;;;;;;;;;;26.31;38.36;101404.09;5030800;28;96849;-88
2021/06/15 05:17:57;;;;;;;;;;;;;;;25.80;38.83;101405.03;5040885;28;98897;-89
2021/06/15 05:22:58;;;;;;;;;;;;;;;25.71;38.43;101403.16;5006291;28;96960;-89
2021/06/15 05:25:26;;;;;;;;;;;;;;;26.16;38.44;101410.84;5002929;28;96719;-87
2021/06/15 05:27:53;;;;;;;;;;;;;;;26.54;37.33;101410.94;5010151;28;96971;-88
2021/06/15 05:30:21;;;;;;;;;;;;;;;26.49;37.47;101417.78;5014125;28;99289;-89
2021/06/15 05:32:48;;;;;;;;;;;;;;;26.18;38.16;101423.28;5000622;28;97421;-88
2021/06/15 05:35:17;;;;;;;;;;;;;;;26.36;37.46;101428.91;5014715;28;96864;-86
2021/06/15 05:37:44;;;;;;;;;;;;;;;26.27;37.77;101439.69;5004569;28;96752;-87
2021/06/15 05:40:14;;;;;;;;;;;;;;;25.88;38.74;101436.84;5039889;28;99064;-86
2021/06/15 05:42:41;;;;;;;;;;;;;;;25.63;39.70;101438.16;5019887;28;96489;-88
2021/06/15 05:45:10;;;;;;;;;;;;;;;25.51;39.87;101441.91;5024424;28;96325;-87
2021/06/15 05:47:37;;;;;;;;;;;;;;;25.00;41.23;101442.72;5010970;28;99209;-88
2021/06/15 05:50:11;;;;;;;;;;;;;;;24.82;41.54;101443.34;5227683;22;100376;-87
2021/06/15 05:52:38;;;;;;;;;;;;;;;25.42;40.40;101438.16;5016369;27;95910;-87
2021/06/15 05:55:08;;;;;;;;;;;;;;;25.97;39.28;101444.16;5008102;27;96687;-88
2021/06/15 06:03:07;;;;;;;;;;;;;;;25.57;39.31;101446.81;5012317;28;97722;-88
2021/06/15 06:08:21;;;;;;;;;;;;;;;26.42;37.90;101441.03;5008930;28;96710;-90
2021/06/15 06:10:52;;;;;;;;;;;;;;;27.08;37.10;101442.09;5010587;28;100855;-89
2021/06/15 06:13:29;;;;;;;;;;;;;;;26.69;37.37;101443.06;5004854;28;97852;-85
2021/06/15 06:15:57;;;;;;;;;;;;;;;26.79;37.20;101458.31;5014014;28;97370;-81
2021/06/15 06:18:29;;;;;;;;;;;;;;;27.08;36.83;101446.66;5015083;28;100271;-88
2021/06/15 06:23:39;;;;;;;;;;;;;;;27.21;36.08;101447.22;5005388;28;96667;-86
2021/06/15 06:53:20;;;;;;;;;;;;;;;27.46;36.50;101464.72;5402025;22;99920;-89
2021/06/15 06:58:30;;;;;;;;;;;;;;;27.61;36.29;101460.59;5183042;22;99099;-90
2021/06/15 07:01:00;;;;;;;;;;;;;;;28.19;35.42;101461.25;5051610;28;99651;-88
2021/06/15 07:03:43;;;;;;;;;;;;;;;28.31;35.13;101459.16;5041729;28;96751;-89
2021/06/15 07:45:52;;;;;;;;;;;;;;;27.39;37.75;101480.75;5036928;27;96896;-89
2021/06/15 07:48:20;;;;;;;;;;;;;;;27.41;37.96;101480.59;5023450;28;96658;-90
2021/06/15 07:50:59;;;;;;;;;;;;;;;27.45;37.87;101480.16;5036527;28;96432;-89
2021/06/15 07:53:25;;;;;;;;;;;;;;;28.34;35.75;101475.19;5094717;22;100170;-90
2021/06/15 07:58:38;;;;;;;;;;;;;;;28.62;35.62;101482.28;5026181;28;96873;-88
2021/06/15 08:01:09;;;;;;;;;;;;;;;28.81;34.86;101487.63;5033408;28;96619;-88
2021/06/15 08:06:37;;;;;;;;;;;;;;;28.37;36.01;101486.59;5039405;28;98716;-88
2021/06/15 08:09:11;;;;;;;;;;;;;;;28.98;34.99;101501.38;5039767;28;96610;-87
2021/06/15 08:11:40;;;;;;;;;;;;;;;28.84;35.36;101490.03;5026624;28;96920;-87
2021/06/15 09:01:29;;;;;;;;;;;;;;;28.64;36.79;101503.88;5051756;27;96367;-87
2021/06/15 09:09:09;;;;;;;;;;;;;;;28.79;36.22;101516.00;5746117;22;99823;-90
2021/06/15 09:12:12;;;;;;;;;;;;;;;29.31;34.69;101514.28;5041470;27;95958;-88
2021/06/15 09:15:03;;;;;;;;;;;;;;;29.44;34.20;101520.19;5041495;27;96607;-90
2021/06/15 09:20:33;;;;;;;;;;;;;;;29.20;36.12;101525.41;5036381;27;98798;-88
2021/06/15 09:23:11;;;;;;;;;;;;;;;29.37;35.56;101532.72;5039677;27;95865;-87
2021/06/15 09:25:42;;;;;;;;;;;;;;;29.13;36.07;101527.91;5022708;27;96270;-90
2021/06/15 09:28:23;;;;;;;;;;;;;;;29.20;36.09;101519.97;5042557;27;98738;-86
2021/06/15 09:36:33;;;;;;;;;;;;;;;29.64;34.57;101535.34;5548019;22;99968;-89
2021/06/15 09:46:46;;;;;;;;;;;;;;;29.42;36.02;101540.41;5339716;22;98527;-89
2021/06/15 09:49:14;;;;;;;;;;;;;;;28.65;37.29;101532.78;5018753;28;97929;-87
2021/06/15 09:54:41;;;;;;;;;;;;;;;28.59;37.56;101547.84;5037642;28;96459;-88
2021/06/15 09:57:14;;;;;;;;;;;;;;;28.28;38.40;101544.59;5044752;27;96638;-90
2021/06/15 10:02:37;;;;;;;;;;;;;;;28.18;38.88;101537.47;5031341;28;98725;-87
2021/06/15 10:05:19;;;;;;;;;;;;;;;29.07;37.17;101539.41;5034681;28;96669;-86
2021/06/15 10:08:03;;;;;;;;;;;;;;;29.16;36.89;101553.94;5032903;28;96604;-88
2021/06/15 10:10:32;;;;;;;;;;;;;;;29.04;36.73;101544.28;5039369;27;100127;-87
2021/06/15 10:15:41;;;;;;;;;;;;;;;29.51;36.07;101532.16;5036482;28;96947;-89
2021/06/15 10:18:09;;;;;;;;;;;;;;;29.96;34.96;101520.25;5039018;28;97963;-88
2021/06/15 10:20:48;;;;;;;;;;;;;;;30.23;34.28;101519.19;5031716;28;96701;-86
2021/06/15 10:23:23;;;;;;;;;;;;;;;29.69;35.29;101530.25;5033047;27;99113;-86
2021/06/15 10:25:50;;;;;;;;;;;;;;;29.17;36.52;101548.34;5036846;22;97005;-88
2021/06/15 10:28:17;;;;;;;;;;;;;;;29.36;36.53;101550.06;5014720;28;96768;-85
2021/06/15 10:30:45;;;;;;;;;;;;;;;29.47;36.19;101540.81;5030235;28;99694;-86
2021/06/15 10:33:26;;;;;;;;;;;;;;;29.46;36.21;101534.53;5035822;28;97731;-87
2021/06/15 10:35:55;;;;;;;;;;;;;;;28.42;38.49;101538.63;5032303;28;96395;-85
2021/06/15 10:38:40;;;;;;;;;;;;;;;29.43;36.58;101543.00;5031608;28;97195;-85
2021/06/15 10:41:09;;;;;;;;;;;;;;;29.78;36.01;101541.22;5030882;28;98296;-85
2021/06/15 10:43:45;;;;;;;;;;;;;;;30.42;34.67;101546.19;5031523;28;97136;-86
2021/06/15 10:48:46;;;;;;;;;;;;;;;30.00;35.32;101546.16;5014632;28;98815;-85
2021/06/15 10:51:21;;;;;;;;;;;;;;;29.19;36.81;101546.31;4999668;28;100767;-84
2021/06/15 10:59:11;;;;;;;;;;;;;;;29.01;37.26;101555.50;5030271;28;96803;-89
2021/06/15 11:01:40;;;;;;;;;;;;;;;30.00;35.28;101557.03;5022647;28;99966;-87
2021/06/15 11:04:07;;;;;;;;;;;;;;;29.17;37.08;101555.66;5354937;22;99307;-87
2021/06/15 11:06:40;;;;;;;;;;;;;;;29.42;36.30;101548.59;5028248;28;97282;-88
2021/06/15 11:09:14;;;;;;;;;;;;;;;30.19;35.23;101554.13;5017536;28;96664;-87
2021/06/15 11:12:12;;;;;;;;;;;;;;;29.54;36.34;101548.19;5019516;28;100181;-87
2021/06/15 11:14:39;;;;;;;;;;;;;;;29.76;36.52;101552.25;5023803;28;96544;-87
2021/06/15 11:30:39;;;;;;;;;;;;;;;29.48;36.93;101565.16;6146275;22;1697981;-85
2021/06/15 11:36:13;;;;;;;;;;;;;;;29.84;35.93;101567.81;6247517;22;98448;-84
2021/06/15 11:41:50;;;;;;;;;;;;;;;28.89;37.59;101560.28;6189921;22;96202;-88
2021/06/15 11:47:26;;;;;;;;;;;;;;;29.26;37.09;101557.44;6178606;22;96780;-89
2021/06/15 11:50:08;;;;;;;;;;;;;;;29.26;37.00;101552.00;6181875;22;99363;-90
2021/06/15 11:55:23;;;;;;;;;;;;;;;29.76;36.29;101552.25;6180551;22;96409;-89
2021/06/15 12:03:23;;;;;;;;;;;;;;;29.37;36.54;101551.78;6246578;22;96506;-89
2021/06/15 12:13:55;;;;;;;;;;;;;;;30.28;34.79;101544.94;6239563;22;96577;-86
2021/06/15 12:16:26;;;;;;;;;;;;;;;30.54;34.29;101539.47;6241143;22;96596;-89
2021/06/15 12:18:57;;;;;;;;;;;;;;;30.03;35.19;101549.41;6239686;22;100300;-87
2021/06/15 12:21:24;;;;;;;;;;;;;;;30.64;34.04;101536.59;6239386;22;100779;-89
2021/06/15 12:23:54;;;;;;;;;;;;;;;30.63;33.91;101545.81;6240905;22;96592;-89
2021/06/15 12:26:23;;;;;;;;;;;;;;;29.61;35.46;101548.41;6243868;22;96590;-89
2021/06/15 12:28:53;;;;;;;;;;;;;;;29.36;35.90;101555.50;6242918;22;101008;-89
2021/06/15 12:31:21;;;;;;;;;;;;;;;29.56;35.57;101548.03;6214873;22;97474;-89
2021/06/15 12:33:51;;;;;;;;;;;;;;;30.13;35.18;101545.72;6241526;22;96662;-90
2021/06/15 12:36:28;;;;;;;;;;;;;;;29.99;35.26;101549.91;6242224;22;96526;-89
2021/06/15 12:39:07;;;;;;;;;;;;;;;30.97;33.20;101534.81;6214279;22;98088;-90
2021/06/15 12:44:19;;;;;;;;;;;;;;;29.37;35.79;101545.47;6189897;22;99378;-88
2021/06/15 12:46:50;;;;;;;;;;;;;;;29.71;35.38;101533.69;6184502;22;96548;-88
2021/06/15 12:49:18;;;;;;;;;;;;;;;29.75;35.26;101541.53;6154411;22;97535;-89
2021/06/15 12:54:45;;;;;;;;;;;;;;;30.02;34.95;101536.81;6177951;22;96527;-89
2021/06/15 12:57:19;;;;;;;;;;;;;;;30.49;33.63;101547.28;6179167;22;96538;-89
2021/06/15 13:00:02;;;;;;;;;;;;;;;29.94;34.47;101539.47;6174096;22;99917;-89
2021/06/15 13:05:17;;;;;;;;;;;;;;;30.16;33.78;101537.22;6174955;22;96526;-89
2021/06/15 13:08:04;;;;;;;;;;;;;;;29.34;35.26;101541.22;6174421;22;96578;-87
2021/06/15 13:10:32;;;;;;;;;;;;;;;30.58;33.58;101540.84;6146045;22;97946;-87
2021/06/15 13:15:40;;;;;;;;;;;;;;;31.12;32.01;101536.72;6174665;22;96676;-86
2021/06/15 13:18:10;;;;;;;;;;;;;;;31.61;31.92;101539.50;6175130;22;96557;-86
2021/06/15 13:20:37;;;;;;;;;;;;;;;31.64;31.48;101539.16;6170942;22;96904;-86
2021/06/15 13:23:18;;;;;;;;;;;;;;;32.01;31.23;101544.06;6177779;22;98274;-86
2021/06/15 13:25:47;;;;;;;;;;;;;;;32.15;30.78;101534.31;6172263;22;96642;-87
2021/06/15 13:28:26;;;;;;;;;;;;;;;31.51;31.31;101530.59;6171729;22;96634;-86
2021/06/15 13:30:53;;;;;;;;;;;;;;;31.81;30.52;101540.84;6170342;22;98855;-87
2021/06/15 13:33:28;;;;;;;;;;;;;;;32.59;29.89;101535.47;6173072;22;101473;-87
2021/06/15 13:35:57;;;;;;;;;;;;;;;31.33;31.99;101538.97;6177096;22;96626;-86
2021/06/15 13:41:34;;;;;;;;;;;;;;;30.88;32.86;101539.41;6170076;22;96510;-86
2021/06/15 13:44:17;;;;;;;;;;;;;;;31.87;31.47;101537.41;6169524;22;101529;-86
2021/06/15 13:46:44;;;;;;;;;;;;;;;30.17;33.92;101541.66;6171448;22;96785;-86
2021/06/15 13:49:12;;;;;;;;;;;;;;;30.56;33.50;101536.56;6169745;22;96739;-88
2021/06/15 13:54:22;;;;;;;;;;;;;;;30.31;33.78;101539.19;6167169;22;98840;-85
2021/06/15 13:56:48;;;;;;;;;;;;;;;30.23;34.54;101530.97;6165627;22;96050;-88
2021/06/15 13:59:16;;;;;;;;;;;;;;;29.65;35.48;101542.50;6173601;22;96786;-89
2021/06/15 14:01:43;;;;;;;;;;;;;;;31.28;32.37;101527.72;6176010;22;99142;-91
2021/06/15 14:04:10;;;;;;;;;;;;;;;30.60;33.78;101530.63;6178366;22;96902;-88
2021/06/15 14:06:39;;;;;;;;;;;;;;;32.12;31.31;101534.63;6181112;22;96708;-89
2021/06/15 14:09:08;;;;;;;;;;;;;;;31.75;31.93;101532.50;6151576;22;96561;-89
2021/06/15 14:11:36;;;;;;;;;;;;;;;32.03;31.16;101534.63;6177920;22;100534;-87
2021/06/15 14:16:58;;;;;;;;;;;;;;;31.74;31.52;101534.38;6174782;22;97116;-87
2021/06/15 14:22:06;;;;;;;;;;;;;;;30.71;33.36;101533.06;6168181;22;99106;-89
2021/06/15 14:24:33;;;;;;;;;;;;;;;29.66;34.93;101540.63;6172165;22;97493;-89
2021/06/15 14:27:12;;;;;;;;;;;;;;;29.27;35.84;101540.13;6175616;22;96790;-90
2021/06/15 14:29:46;;;;;;;;;;;;;;;29.15;36.03;101538.59;6149100;22;96776;-87
2021/06/15 14:35:23;;;;;;;;;;;;;;;29.31;35.65;101538.78;6170196;22;99119;-88
2021/06/15 14:43:33;;;;;;;;;;;;;;;34.65;27.17;101527.81;6168325;22;100088;-88
2021/06/15 14:46:02;;;;;;;;;;;;;;;39.97;20.07;101534.28;6174349;22;96497;-89
2021/06/15 14:48:31;;;;;;;;;;;;;;;38.71;21.09;101530.75;6173561;22;96931;-84
2021/06/15 14:53:40;;;;;;;;;;;;;;;35.73;25.26;101528.53;6169245;22;96943;-89
2021/06/15 15:04:13;;;;;;;;;;;;;;;32.44;29.50;101535.38;6182554;22;96761;-86
2021/06/15 15:17:43;;;;;;;;;;;;;;;29.28;35.04;101526.31;6170174;22;99690;-88
2021/06/15 15:28:15;;;;;;;;;;;;;;;29.58;34.65;101518.78;6166027;22;98332;-90
2021/06/15 15:33:28;;;;;;;;;;;;;;;29.36;34.71;101522.00;6181254;22;96101;-88
2021/06/15 15:57:38;;;;;;;;;;;;;;;30.26;33.25;101514.25;6176376;22;96634;-89
2021/06/15 16:05:18;;;;;;;;;;;;;;;30.29;32.97;101504.91;6180121;22;97659;-83
2021/06/15 16:07:54;;;;;;;;;;;;;;;30.21;32.72;101505.72;6131290;22;96374;-85
2021/06/15 16:31:53;;;;;;;;;;;;;;;28.78;34.67;101490.66;6182075;22;98473;-88
2021/06/15 16:34:34;;;;;;;;;;;;;;;28.82;33.99;101489.31;6183722;22;97079;-83
2021/06/15 16:37:12;;;;;;;;;;;;;;;28.70;33.79;101497.81;6183938;22;96064;-84
2021/06/15 17:01:56;;;;;;;;;;;;;;;28.63;34.58;101486.72;6179306;22;98715;-88
2021/06/15 17:04:25;;;;;;;;;;;;;;;28.07;35.67;101482.28;6182285;22;98838;-86
2021/06/15 17:23:43;;;;;;;;;;;;;;;28.34;35.23;101486.91;6182019;22;98461;-88
2021/06/15 17:28:54;;;;;;;;;;;;;;;29.01;33.71;101488.34;6182435;22;95825;-89
2021/06/15 17:48:17;;;;;;;;;;;;;;;28.24;34.03;101487.94;6169407;22;96255;-88
2021/06/15 18:07:26;;;;;;;;;;;;;;;28.19;33.36;101482.97;6206397;22;99323;-85
2021/06/15 18:09:53;;;;;;;;;;;;;;;27.35;34.21;101485.63;6238599;22;100258;-84
2021/06/15 18:15:19;;;;;;;;;;;;;;;26.47;35.18;101491.09;6238581;22;96531;-86
2021/06/15 18:18:01;;;;;;;;;;;;;;;27.18;33.59;101480.03;6241771;22;97812;-85
2021/06/15 18:20:42;;;;;;;;;;;;;;;27.41;32.67;101491.47;6243639;22;97003;-85
2021/06/15 18:23:12;;;;;;;;;;;;;;;26.26;34.52;101490.31;6243559;22;95914;-86
2021/06/15 18:25:40;;;;;;;;;;;;;;;26.57;33.87;101501.97;6241769;22;96678;-85
2021/06/15 18:28:14;;;;;;;;;;;;;;;26.55;33.40;101496.69;6242027;22;99155;-85
2021/06/15 18:33:13;;;;;;;;;;;;;;;27.54;32.21;101494.75;6244492;22;96124;-87
2021/06/15 18:35:41;;;;;;;;;;;;;;;27.14;32.52;101503.91;6244449;22;97684;-88
2021/06/15 18:47:00;;;;;;;;;;;;;;;26.80;32.59;101497.13;6229294;22;96579;-86
2021/06/15 18:49:30;;;;;;;;;;;;;;;26.15;33.33;101501.22;6230799;22;99331;-84
2021/06/15 18:54:44;;;;;;;;;;;;;;;26.28;33.32;101501.00;6219495;22;96666;-87
2021/06/15 18:57:15;;;;;;;;;;;;;;;26.73;32.71;101498.69;6240210;22;96863;-87
2021/06/15 18:59:49;;;;;;;;;;;;;;;26.73;32.43;101498.69;6240136;22;98869;-87
2021/06/15 19:02:18;;;;;;;;;;;;;;;26.49;32.64;101499.09;6241219;22;99611;-87
2021/06/15 19:04:44;;;;;;;;;;;;;;;26.64;32.42;101492.28;6242806;22;96147;-85
2021/06/15 19:07:13;;;;;;;;;;;;;;;26.90;32.07;101495.34;6242230;22;96447;-85
2021/06/15 19:09:45;;;;;;;;;;;;;;;26.71;32.28;101498.88;6241320;22;99706;-86
2021/06/15 19:12:13;;;;;;;;;;;;;;;26.78;32.67;101504.56;6242685;22;100747;-86
2021/06/15 19:14:45;;;;;;;;;;;;;;;26.96;31.79;101509.19;6238955;22;96114;-88
2021/06/15 19:17:15;;;;;;;;;;;;;;;27.03;31.68;101509.47;6235650;22;96717;-88
2021/06/15 19:19:48;;;;;;;;;;;;;;;26.68;32.24;101515.38;6236433;22;98935;-89
2021/06/15 19:22:17;;;;;;;;;;;;;;;26.30;32.47;101510.72;6233001;22;98624;-87
2021/06/15 19:27:34;;;;;;;;;;;;;;;26.26;33.07;101522.81;6239190;22;96718;-88
2021/06/15 19:30:10;;;;;;;;;;;;;;;26.24;32.66;101518.53;6232924;22;98256;-86
2021/06/15 19:32:38;;;;;;;;;;;;;;;26.41;32.68;101520.59;6233719;22;99377;-87
2021/06/15 19:35:10;;;;;;;;;;;;;;;26.46;32.38;101527.31;6236297;22;96446;-89
2021/06/15 19:37:37;;;;;;;;;;;;;;;26.59;32.09;101522.50;6214127;22;96266;-88
2021/06/15 19:46:05;;;;;;;;;;;;;;;25.63;32.84;101527.47;6232150;22;96465;-89
2021/06/15 19:51:38;;;;;;;;;;;;;;;25.46;33.19;101530.75;6156241;22;96820;-89
2021/06/15 19:54:09;;;;;;;;;;;;;;;25.33;32.96;101538.19;6241857;22;96337;-89
2021/06/15 19:59:30;;;;;;;;;;;;;;;25.88;32.47;101539.72;6234398;22;96326;-89
2021/06/15 20:07:28;;;;;;;;;;;;;;;25.90;32.31;101551.28;6214856;22;96691;-84
2021/06/15 20:12:47;;;;;;;;;;;;;;;25.93;32.64;101544.75;6200144;22;99579;-88
2021/06/15 20:18:11;;;;;;;;;;;;;;;25.94;32.55;101552.72;6177066;22;99623;-88
2021/06/15 20:23:26;;;;;;;;;;;;;;;25.79;33.48;101545.94;6161152;22;99732;-87
2021/06/15 20:26:11;;;;;;;;;;;;;;;25.76;33.59;101548.91;6170916;22;97712;-87
2021/06/15 20:29:01;;;;;;;;;;;;;;;25.63;33.63;101549.13;6163711;22;96586;-89
2021/06/15 20:31:47;;;;;;;;;;;;;;;25.72;33.47;101558.31;6169497;22;96580;-87
2021/06/15 20:37:05;;;;;;;;;;;;;;;25.49;34.00;101552.09;6168892;22;99837;-89
2021/06/15 20:45:06;;;;;;;;;;;;;;;24.65;35.99;101555.56;6165786;22;97432;-85
2021/06/15 20:47:44;;;;;;;;;;;;;;;24.56;36.21;101562.56;6178210;22;101198;-86
2021/06/15 21:09:25;;;;;;;;;;;;;;;23.68;40.61;101588.50;6158559;22;99312;-89
2021/06/15 21:15:21;;;;;;;;;;;;;;;23.97;40.20;101585.34;6175820;22;96621;-89
2021/06/15 21:17:56;;;;;;;;;;;;;;;23.42;41.20;101590.47;6173474;22;96997;-88
2021/06/15 21:20:24;;;;;;;;;;;;;;;23.29;41.42;101595.06;6175529;22;99358;-89
2021/06/15 21:30:39;;;;;;;;;;;;;;;23.52;40.05;101590.66;6178505;22;99961;-87
2021/06/15 21:35:45;;;;;;;;;;;;;;;23.15;40.55;101592.53;6198633;22;98248;-89
2021/06/15 21:38:18;;;;;;;;;;;;;;;23.28;40.39;101601.44;6206862;22;97935;-89
2021/06/15 21:40:47;;;;;;;;;;;;;;;23.21;40.36;101604.69;6203545;22;98924;-88